Pagrindinis puslapis
METAR-TAF:

METAR-TAF

Oro uostai :

Deadhorse, Aliaska, Jungtinės Amerikos Valstijos

platuma: 70-20N, ilguma: 150-56W, Aukštis: 5 m

Dabartinis oras

Ataskaita buvo paskelbta 33 minutes, ne 21:45 UTC
Vėjas 20 kt iš Rytų/Šiaurės Rytų
Temperatūra -1°C
Drėgmė 93%
Slėgis 1018 hPa
Matomumas: 3.2 km
Su prošvaistėmis ne aukštis 200 ft
Su prošvaistėmis ne aukštis 400 ft
rūkana

METAR: PALP 302145Z 06020KT 2SM BR BKN002 BKN004 M01/M02 A3005

Laikas: 14:18 (22:18 UTC)


TAF: trūkstamas

Orai ataskaitas ir orų prognozės (METAR, TAF).

turimą stotys yra geltonos ir raudonos taškus žemėlapyje.

Perkelti pele per norėdami pamatyti stoties vardą.

Tada spustelėkite, norėdami matyti oro stebėjimo ir prognozės.

Norėdami pakeisti žemėlapį: spustelėkite ant žalios mygtukų su juodo kryžiaus žemyn,; žalią mygtuką su brūkšneliu, jei norite nutolinti; arba žalių rodyklių gretimoms žemėlapius.


METAR-TAF: